sensor_id;sensor_type;location;lat;lon;timestamp;pressure;altitude;pressure_sealevel;temperature;humidity
76866;BME280;66647;52.124;5.416;2023-05-29T00:02:15;102552.63;;;11.61;73.82
76866;BME280;66647;52.124;5.416;2023-05-29T00:04:42;102543.28;;;11.62;73.95
76866;BME280;66647;52.124;5.416;2023-05-29T00:07:08;102545.50;;;11.60;73.43
76866;BME280;66647;52.124;5.416;2023-05-29T00:09:35;102550.19;;;11.59;74.09
76866;BME280;66647;52.124;5.416;2023-05-29T00:12:02;102543.09;;;11.53;73.67
76866;BME280;66647;52.124;5.416;2023-05-29T00:14:29;102545.06;;;11.48;73.92
76866;BME280;66647;52.124;5.416;2023-05-29T00:17:09;102537.94;;;11.47;73.81
76866;BME280;66647;52.124;5.416;2023-05-29T00:19:53;102538.47;;;11.49;73.72
76866;BME280;66647;52.124;5.416;2023-05-29T00:22:46;102536.81;;;11.48;73.63
76866;BME280;66647;52.124;5.416;2023-05-29T00:25:14;102540.97;;;11.45;73.82
76866;BME280;66647;52.124;5.416;2023-05-29T00:27:41;102539.16;;;11.35;74.10
76866;BME280;66647;52.124;5.416;2023-05-29T00:30:13;102541.66;;;11.32;74.14
76866;BME280;66647;52.124;5.416;2023-05-29T00:33:05;102545.22;;;11.32;73.62
76866;BME280;66647;52.124;5.416;2023-05-29T00:35:32;102548.56;;;11.29;73.84
76866;BME280;66647;52.124;5.416;2023-05-29T00:38:03;102542.00;;;11.25;73.97
76866;BME280;66647;52.124;5.416;2023-05-29T00:40:36;102556.06;;;11.19;74.07
76866;BME280;66647;52.124;5.416;2023-05-29T00:43:03;102554.41;;;11.18;74.23
76866;BME280;66647;52.124;5.416;2023-05-29T00:45:47;102557.44;;;11.16;73.86
76866;BME280;66647;52.124;5.416;2023-05-29T00:48:40;102557.78;;;11.09;74.24
76866;BME280;66647;52.124;5.416;2023-05-29T00:51:09;102560.81;;;11.08;74.03
76866;BME280;66647;52.124;5.416;2023-05-29T00:53:46;102568.00;;;11.04;74.21
76866;BME280;66647;52.124;5.416;2023-05-29T00:56:38;102568.28;;;11.02;74.02
76866;BME280;66647;52.124;5.416;2023-05-29T01:00:04;102567.75;;;11.00;74.40
76866;BME280;66647;52.124;5.416;2023-05-29T01:02:51;102571.63;;;10.94;74.57
76866;BME280;66647;52.124;5.416;2023-05-29T01:05:19;102569.75;;;10.90;75.12
76866;BME280;66647;52.124;5.416;2023-05-29T01:07:46;102570.03;;;10.88;74.71
76866;BME280;66647;52.124;5.416;2023-05-29T01:10:23;102568.66;;;10.86;74.94
76866;BME280;66647;52.124;5.416;2023-05-29T01:13:11;102567.28;;;10.88;74.62
76866;BME280;66647;52.124;5.416;2023-05-29T01:16:12;102574.69;;;10.88;74.60
76866;BME280;66647;52.124;5.416;2023-05-29T01:18:57;102581.28;;;10.87;74.68
76866;BME280;66647;52.124;5.416;2023-05-29T01:24:32;102589.28;;;10.78;74.67
76866;BME280;66647;52.124;5.416;2023-05-29T01:27:12;102589.03;;;10.74;74.72
76866;BME280;66647;52.124;5.416;2023-05-29T01:29:41;102596.72;;;10.72;74.99
76866;BME280;66647;52.124;5.416;2023-05-29T01:32:10;102605.84;;;10.68;74.95
76866;BME280;66647;52.124;5.416;2023-05-29T01:34:37;102611.06;;;10.64;75.06
76866;BME280;66647;52.124;5.416;2023-05-29T01:37:04;102604.50;;;10.60;75.28
76866;BME280;66647;52.124;5.416;2023-05-29T01:39:31;102617.41;;;10.60;75.36
76866;BME280;66647;52.124;5.416;2023-05-29T01:41:59;102612.72;;;10.60;75.47
76866;BME280;66647;52.124;5.416;2023-05-29T01:44:27;102621.53;;;10.57;75.73
76866;BME280;66647;52.124;5.416;2023-05-29T01:46:55;102611.69;;;10.51;75.80
76866;BME280;66647;52.124;5.416;2023-05-29T01:49:24;102619.66;;;10.48;75.56
76866;BME280;66647;52.124;5.416;2023-05-29T01:51:51;102616.09;;;10.42;75.73
76866;BME280;66647;52.124;5.416;2023-05-29T01:54:43;102621.88;;;10.40;75.59
76866;BME280;66647;52.124;5.416;2023-05-29T01:57:11;102615.31;;;10.36;76.08
76866;BME280;66647;52.124;5.416;2023-05-29T01:59:41;102618.34;;;10.35;75.92
76866;BME280;66647;52.124;5.416;2023-05-29T02:02:14;102624.38;;;10.32;75.99
76866;BME280;66647;52.124;5.416;2023-05-29T02:04:41;102635.91;;;10.29;76.22
76866;BME280;66647;52.124;5.416;2023-05-29T02:07:07;102634.28;;;10.23;76.45
76866;BME280;66647;52.124;5.416;2023-05-29T02:09:35;102627.72;;;10.24;76.36
76866;BME280;66647;52.124;5.416;2023-05-29T02:12:03;102634.56;;;10.21;76.48
76866;BME280;66647;52.124;5.416;2023-05-29T02:14:33;102627.69;;;10.19;76.46
76866;BME280;66647;52.124;5.416;2023-05-29T02:17:25;102624.41;;;10.11;76.70
76866;BME280;66647;52.124;5.416;2023-05-29T02:20:24;102608.53;;;10.08;76.50
76866;BME280;66647;52.124;5.416;2023-05-29T02:22:51;102607.44;;;10.09;77.12
76866;BME280;66647;52.124;5.416;2023-05-29T02:25:26;102609.63;;;10.07;76.94
76866;BME280;66647;52.124;5.416;2023-05-29T02:27:53;102612.38;;;10.07;77.00
76866;BME280;66647;52.124;5.416;2023-05-29T02:30:21;102609.09;;;10.05;77.07
76866;BME280;66647;52.124;5.416;2023-05-29T02:32:57;102601.16;;;10.04;77.09
76866;BME280;66647;52.124;5.416;2023-05-29T02:35:24;102611.88;;;10.00;76.86
76866;BME280;66647;52.124;5.416;2023-05-29T02:38:15;102616.25;;;9.96;77.02
76866;BME280;66647;52.124;5.416;2023-05-29T02:41:07;102623.09;;;9.94;77.04
76866;BME280;66647;52.124;5.416;2023-05-29T02:43:34;102622.03;;;9.90;77.12
76866;BME280;66647;52.124;5.416;2023-05-29T02:46:00;102624.47;;;9.91;77.34
76866;BME280;66647;52.124;5.416;2023-05-29T02:48:27;102632.97;;;9.90;77.37
76866;BME280;66647;52.124;5.416;2023-05-29T02:50:55;102620.94;;;9.86;77.40
76866;BME280;66647;52.124;5.416;2023-05-29T02:53:22;102622.31;;;9.83;77.62
76866;BME280;66647;52.124;5.416;2023-05-29T02:55:49;102619.56;;;9.78;77.93
76866;BME280;66647;52.124;5.416;2023-05-29T02:58:17;102620.69;;;9.72;77.89
76866;BME280;66647;52.124;5.416;2023-05-29T03:00:47;102624.53;;;9.71;78.22
76866;BME280;66647;52.124;5.416;2023-05-29T03:03:14;102631.09;;;9.70;77.74
76866;BME280;66647;52.124;5.416;2023-05-29T03:05:40;102631.94;;;9.70;77.74
76866;BME280;66647;52.124;5.416;2023-05-29T03:08:07;102624.53;;;9.66;77.80
76866;BME280;66647;52.124;5.416;2023-05-29T03:10:34;102628.91;;;9.67;77.54
76866;BME280;66647;52.124;5.416;2023-05-29T03:13:00;102625.63;;;9.65;78.32
76866;BME280;66647;52.124;5.416;2023-05-29T03:15:27;102627.81;;;9.63;78.19
76866;BME280;66647;52.124;5.416;2023-05-29T03:17:54;102627.56;;;9.59;77.98
76866;BME280;66647;52.124;5.416;2023-05-29T03:20:25;102621.53;;;9.57;78.28
76866;BME280;66647;52.124;5.416;2023-05-29T03:22:55;102620.16;;;9.55;78.25
76866;BME280;66647;52.124;5.416;2023-05-29T03:25:22;102618.50;;;9.54;78.01
76866;BME280;66647;52.124;5.416;2023-05-29T03:27:50;102608.66;;;9.53;78.58
76866;BME280;66647;52.124;5.416;2023-05-29T03:30:28;102621.25;;;9.49;78.33
76866;BME280;66647;52.124;5.416;2023-05-29T03:32:55;102610.56;;;9.47;78.39
76866;BME280;66647;52.124;5.416;2023-05-29T03:35:34;102613.84;;;9.44;78.61
76866;BME280;66647;52.124;5.416;2023-05-29T03:38:01;102622.09;;;9.39;78.71
76866;BME280;66647;52.124;5.416;2023-05-29T03:40:28;102621.28;;;9.38;78.60
76866;BME280;66647;52.124;5.416;2023-05-29T03:43:09;102619.34;;;9.39;78.45
76866;BME280;66647;52.124;5.416;2023-05-29T03:45:50;102621.28;;;9.38;78.89
76866;BME280;66647;52.124;5.416;2023-05-29T03:48:42;102616.63;;;9.39;78.36
76866;BME280;66647;52.124;5.416;2023-05-29T03:51:09;102618.81;;;9.37;78.50
76866;BME280;66647;52.124;5.416;2023-05-29T03:53:37;102626.19;;;9.36;78.59
76866;BME280;66647;52.124;5.416;2023-05-29T03:56:19;102628.13;;;9.36;78.12
76866;BME280;66647;52.124;5.416;2023-05-29T03:59:11;102629.47;;;9.33;78.11
76866;BME280;66647;52.124;5.416;2023-05-29T04:01:38;102627.84;;;9.32;78.49
76866;BME280;66647;52.124;5.416;2023-05-29T04:04:04;102628.38;;;9.34;78.37
76866;BME280;66647;52.124;5.416;2023-05-29T04:06:51;102624.84;;;9.34;78.14
76866;BME280;66647;52.124;5.416;2023-05-29T04:09:18;102637.16;;;9.31;78.25
76866;BME280;66647;52.124;5.416;2023-05-29T04:11:54;102634.97;;;9.33;78.75
76866;BME280;66647;52.124;5.416;2023-05-29T04:14:21;102633.88;;;9.34;78.16
76866;BME280;66647;52.124;5.416;2023-05-29T04:16:48;102643.72;;;9.35;78.38
76866;BME280;66647;52.124;5.416;2023-05-29T04:19:14;102643.72;;;9.35;78.66
76866;BME280;66647;52.124;5.416;2023-05-29T04:21:41;102641.53;;;9.37;78.48
76866;BME280;66647;52.124;5.416;2023-05-29T04:24:34;102654.94;;;9.39;78.23
76866;BME280;66647;52.124;5.416;2023-05-29T04:27:02;102653.03;;;9.39;78.37
76866;BME280;66647;52.124;5.416;2023-05-29T04:29:30;102647.56;;;9.39;77.86
76866;BME280;66647;52.124;5.416;2023-05-29T04:31:56;102645.66;;;9.40;78.31
76866;BME280;66647;52.124;5.416;2023-05-29T04:34:25;102651.09;;;9.45;78.28
76866;BME280;66647;52.124;5.416;2023-05-29T04:36:52;102647.81;;;9.48;78.25
76866;BME280;66647;52.124;5.416;2023-05-29T04:39:19;102654.09;;;9.49;78.30
76866;BME280;66647;52.124;5.416;2023-05-29T04:42:01;102673.28;;;9.54;78.30
76866;BME280;66647;52.124;5.416;2023-05-29T04:44:28;102666.44;;;9.56;77.66
76866;BME280;66647;52.124;5.416;2023-05-29T04:47:22;102663.44;;;9.63;77.37
76866;BME280;66647;52.124;5.416;2023-05-29T04:49:49;102674.94;;;9.65;77.83
76866;BME280;66647;52.124;5.416;2023-05-29T04:52:16;102676.31;;;9.67;77.71
76866;BME280;66647;52.124;5.416;2023-05-29T04:54:46;102670.28;;;9.70;77.22
76866;BME280;66647;52.124;5.416;2023-05-29T04:57:42;102667.25;;;9.72;77.22
76866;BME280;66647;52.124;5.416;2023-05-29T05:00:09;102668.88;;;9.78;76.51
76866;BME280;66647;52.124;5.416;2023-05-29T05:02:43;102665.31;;;9.83;76.89
76866;BME280;66647;52.124;5.416;2023-05-29T05:05:12;102671.34;;;9.90;76.58
76866;BME280;66647;52.124;5.416;2023-05-29T05:07:39;102686.41;;;9.92;76.61
76866;BME280;66647;52.124;5.416;2023-05-29T05:10:12;102682.56;;;9.98;76.37
76866;BME280;66647;52.124;5.416;2023-05-29T05:13:04;102685.25;;;10.19;76.00
76866;BME280;66647;52.124;5.416;2023-05-29T05:15:53;102684.47;;;10.88;74.27
76866;BME280;66647;52.124;5.416;2023-05-29T05:18:20;102687.66;;;11.05;72.69
76866;BME280;66647;52.124;5.416;2023-05-29T05:20:56;102689.34;;;11.01;72.70
76866;BME280;66647;52.124;5.416;2023-05-29T05:23:25;102681.03;;;11.11;72.55
76866;BME280;66647;52.124;5.416;2023-05-29T05:26:08;102675.00;;;11.48;70.71
76866;BME280;66647;52.124;5.416;2023-05-29T05:28:35;102681.28;;;11.54;70.95
76866;BME280;66647;52.124;5.416;2023-05-29T05:31:03;102672.44;;;11.62;70.09
76866;BME280;66647;52.124;5.416;2023-05-29T05:33:31;102677.44;;;11.55;70.34
76866;BME280;66647;52.124;5.416;2023-05-29T05:35:59;102678.03;;;11.47;70.56
76866;BME280;66647;52.124;5.416;2023-05-29T05:38:51;102680.63;;;11.67;70.47
76866;BME280;66647;52.124;5.416;2023-05-29T05:41:18;102684.59;;;11.85;69.27
76866;BME280;66647;52.124;5.416;2023-05-29T05:43:45;102678.56;;;12.11;67.30
76866;BME280;66647;52.124;5.416;2023-05-29T05:46:32;102679.84;;;12.43;66.78
76866;BME280;66647;52.124;5.416;2023-05-29T05:48:59;102689.25;;;12.85;65.59
76866;BME280;66647;52.124;5.416;2023-05-29T05:51:27;102682.25;;;12.92;64.32
76866;BME280;66647;52.124;5.416;2023-05-29T05:53:54;102689.22;;;12.66;64.98
76866;BME280;66647;52.124;5.416;2023-05-29T05:56:21;102694.25;;;12.35;65.19
76866;BME280;66647;52.124;5.416;2023-05-29T05:59:13;102699.88;;;12.49;66.03
76866;BME280;66647;52.124;5.416;2023-05-29T06:01:40;102700.34;;;12.56;64.19
76866;BME280;66647;52.124;5.416;2023-05-29T06:04:08;102686.81;;;12.59;64.35
76866;BME280;66647;52.124;5.416;2023-05-29T06:07:00;102696.03;;;12.68;64.68
76866;BME280;66647;52.124;5.416;2023-05-29T06:09:28;102694.81;;;12.79;62.92
76866;BME280;66647;52.124;5.416;2023-05-29T06:11:55;102699.00;;;13.15;62.47
76866;BME280;66647;52.124;5.416;2023-05-29T06:14:23;102695.06;;;13.58;60.27
76866;BME280;66647;52.124;5.416;2023-05-29T06:16:51;102685.47;;;13.69;59.98
76866;BME280;66647;52.124;5.416;2023-05-29T06:19:20;102689.03;;;14.02;58.93
76866;BME280;66647;52.124;5.416;2023-05-29T06:21:54;102685.09;;;14.22;57.84
76866;BME280;66647;52.124;5.416;2023-05-29T06:24:21;102685.78;;;14.14;58.46
76866;BME280;66647;52.124;5.416;2023-05-29T06:26:50;102684.41;;;14.44;56.83
76866;BME280;66647;52.124;5.416;2023-05-29T06:29:18;102692.31;;;14.32;56.70
76866;BME280;66647;52.124;5.416;2023-05-29T06:31:44;102694.69;;;14.25;57.43
76866;BME280;66647;52.124;5.416;2023-05-29T06:34:13;102690.28;;;14.37;56.43
76866;BME280;66647;52.124;5.416;2023-05-29T06:36:50;102695.13;;;14.45;56.18
76866;BME280;66647;52.124;5.416;2023-05-29T06:39:22;102694.78;;;14.88;55.48
76866;BME280;66647;52.124;5.416;2023-05-29T06:42:16;102706.09;;;15.14;55.87
76866;BME280;66647;52.124;5.416;2023-05-29T06:44:43;102699.47;;;15.60;53.23
76866;BME280;66647;52.124;5.416;2023-05-29T06:47:09;102696.44;;;15.92;52.02
76866;BME280;66647;52.124;5.416;2023-05-29T06:49:37;102696.72;;;15.82;51.72
76866;BME280;66647;52.124;5.416;2023-05-29T06:52:05;102712.56;;;15.90;51.59
76866;BME280;66647;52.124;5.416;2023-05-29T06:54:51;102711.13;;;16.32;50.46
76866;BME280;66647;52.124;5.416;2023-05-29T06:57:17;102709.31;;;16.28;50.28
76866;BME280;66647;52.124;5.416;2023-05-29T06:59:44;102707.50;;;16.54;50.07
76866;BME280;66647;52.124;5.416;2023-05-29T07:02:11;102705.91;;;16.31;50.69
76866;BME280;66647;52.124;5.416;2023-05-29T07:04:38;102704.22;;;16.52;49.57
76866;BME280;66647;52.124;5.416;2023-05-29T07:07:04;102706.06;;;16.65;48.98
76866;BME280;66647;52.124;5.416;2023-05-29T07:09:31;102703.47;;;16.69;49.83
76866;BME280;66647;52.124;5.416;2023-05-29T07:11:59;102702.84;;;16.81;48.67
76866;BME280;66647;52.124;5.416;2023-05-29T07:14:25;102700.25;;;16.93;48.90
76866;BME280;66647;52.124;5.416;2023-05-29T07:16:52;102715.63;;;17.16;48.25
76866;BME280;66647;52.124;5.416;2023-05-29T07:19:19;102704.38;;;17.21;48.30
76866;BME280;66647;52.124;5.416;2023-05-29T07:21:48;102707.31;;;17.42;48.09
76866;BME280;66647;52.124;5.416;2023-05-29T07:24:17;102717.91;;;17.49;47.93
76866;BME280;66647;52.124;5.416;2023-05-29T07:26:44;102717.41;;;17.81;47.09
76866;BME280;66647;52.124;5.416;2023-05-29T07:29:11;102721.47;;;17.92;46.45
76866;BME280;66647;52.124;5.416;2023-05-29T07:31:38;102725.22;;;17.96;46.21
76866;BME280;66647;52.124;5.416;2023-05-29T07:34:07;102715.53;;;18.11;45.00
76866;BME280;66647;52.124;5.416;2023-05-29T07:36:33;102719.66;;;17.96;44.74
76866;BME280;66647;52.124;5.416;2023-05-29T07:39:05;102712.31;;;18.00;44.87
76866;BME280;66647;52.124;5.416;2023-05-29T07:41:34;102714.09;;;17.96;44.14
76866;BME280;66647;52.124;5.416;2023-05-29T07:44:02;102717.84;;;18.09;44.57
76866;BME280;66647;52.124;5.416;2023-05-29T07:46:30;102716.84;;;18.13;44.59
76866;BME280;66647;52.124;5.416;2023-05-29T07:49:17;102704.94;;;18.13;44.21
76866;BME280;66647;52.124;5.416;2023-05-29T07:51:43;102716.41;;;18.41;43.82
76866;BME280;66647;52.124;5.416;2023-05-29T07:54:10;102706.19;;;18.54;43.44
76866;BME280;66647;52.124;5.416;2023-05-29T07:56:38;102713.28;;;18.81;43.92
76866;BME280;66647;52.124;5.416;2023-05-29T07:59:07;102718.53;;;19.03;41.86
76866;BME280;66647;52.124;5.416;2023-05-29T08:01:37;102732.06;;;19.13;41.93
76866;BME280;66647;52.124;5.416;2023-05-29T08:04:06;102722.66;;;18.97;42.76
76866;BME280;66647;52.124;5.416;2023-05-29T08:06:34;102730.66;;;18.98;41.83
76866;BME280;66647;52.124;5.416;2023-05-29T08:09:02;102719.88;;;19.18;41.17
76866;BME280;66647;52.124;5.416;2023-05-29T08:11:29;102730.41;;;19.33;41.02
76866;BME280;66647;52.124;5.416;2023-05-29T08:13:56;102726.50;;;19.13;41.64
76866;BME280;66647;52.124;5.416;2023-05-29T08:16:23;102722.06;;;19.12;41.27
76866;BME280;66647;52.124;5.416;2023-05-29T08:18:49;102729.06;;;19.39;42.12
76866;BME280;66647;52.124;5.416;2023-05-29T08:21:17;102732.47;;;19.44;41.09
76866;BME280;66647;52.124;5.416;2023-05-29T08:23:43;102734.00;;;19.33;40.59
76866;BME280;66647;52.124;5.416;2023-05-29T08:26:13;102735.25;;;19.44;40.83
76866;BME280;66647;52.124;5.416;2023-05-29T08:28:40;102737.53;;;19.22;40.31
76866;BME280;66647;52.124;5.416;2023-05-29T08:31:08;102738.28;;;19.10;41.12
76866;BME280;66647;52.124;5.416;2023-05-29T08:33:40;102728.84;;;19.23;40.57
76866;BME280;66647;52.124;5.416;2023-05-29T08:36:16;102730.00;;;19.22;41.32
76866;BME280;66647;52.124;5.416;2023-05-29T08:38:53;102740.13;;;19.48;40.57
76866;BME280;66647;52.124;5.416;2023-05-29T08:44:16;102730.22;;;19.59;40.73
76866;BME280;66647;52.124;5.416;2023-05-29T08:46:54;102732.66;;;19.60;40.56
76866;BME280;66647;52.124;5.416;2023-05-29T08:49:42;102740.75;;;19.53;40.27
76866;BME280;66647;52.124;5.416;2023-05-29T08:52:37;102743.25;;;19.46;41.00
76866;BME280;66647;52.124;5.416;2023-05-29T08:55:05;102732.47;;;19.44;39.62
76866;BME280;66647;52.124;5.416;2023-05-29T08:57:49;102739.25;;;19.76;40.92
76866;BME280;66647;52.124;5.416;2023-05-29T09:00:16;102732.16;;;20.12;39.35
76866;BME280;66647;52.124;5.416;2023-05-29T09:03:02;102753.41;;;20.29;39.15
76866;BME280;66647;52.124;5.416;2023-05-29T09:05:30;102736.66;;;20.04;39.14
76866;BME280;66647;52.124;5.416;2023-05-29T09:08:22;102735.00;;;20.61;39.84
76866;BME280;66647;52.124;5.416;2023-05-29T09:11:05;102743.38;;;20.61;37.13
76866;BME280;66647;52.124;5.416;2023-05-29T09:13:32;102748.91;;;20.36;37.62
76866;BME280;66647;52.124;5.416;2023-05-29T09:15:59;102730.19;;;20.37;37.75
76866;BME280;66647;52.124;5.416;2023-05-29T09:18:43;102750.09;;;20.48;38.96
76866;BME280;66647;52.124;5.416;2023-05-29T09:21:37;102742.44;;;20.57;38.63
76866;BME280;66647;52.124;5.416;2023-05-29T09:24:04;102743.72;;;20.71;38.40
76866;BME280;66647;52.124;5.416;2023-05-29T09:26:50;102739.63;;;20.81;37.28
76866;BME280;66647;52.124;5.416;2023-05-29T09:29:17;102741.47;;;21.01;37.05
76866;BME280;66647;52.124;5.416;2023-05-29T09:31:54;102744.81;;;21.31;37.79
76866;BME280;66647;52.124;5.416;2023-05-29T09:34:23;102739.50;;;21.54;36.62
76866;BME280;66647;52.124;5.416;2023-05-29T09:37:05;102742.28;;;21.54;37.36
76866;BME280;66647;52.124;5.416;2023-05-29T09:42:10;102733.19;;;21.29;36.76
76866;BME280;66647;52.124;5.416;2023-05-29T09:44:39;102732.25;;;21.37;37.04
76866;BME280;66647;52.124;5.416;2023-05-29T09:47:21;102729.59;;;21.57;36.84
76866;BME280;66647;52.124;5.416;2023-05-29T09:49:47;102735.91;;;21.54;36.22
76866;BME280;66647;52.124;5.416;2023-05-29T09:52:21;102723.69;;;21.46;35.68
76866;BME280;66647;52.124;5.416;2023-05-29T09:54:49;102724.03;;;21.57;36.65
76866;BME280;66647;52.124;5.416;2023-05-29T09:57:21;102727.28;;;21.59;35.93
76866;BME280;66647;52.124;5.416;2023-05-29T09:59:52;102726.59;;;21.77;36.80
76866;BME280;66647;52.124;5.416;2023-05-29T10:02:19;102718.50;;;21.88;36.88
76866;BME280;66647;52.124;5.416;2023-05-29T10:04:55;102718.31;;;22.09;36.10
76866;BME280;66647;52.124;5.416;2023-05-29T10:07:27;102725.06;;;21.80;34.94
76866;BME280;66647;52.124;5.416;2023-05-29T10:10:12;102729.88;;;21.95;35.11
76866;BME280;66647;52.124;5.416;2023-05-29T10:12:53;102725.72;;;21.73;35.18
76866;BME280;66647;52.124;5.416;2023-05-29T10:15:21;102717.41;;;21.49;36.64
76866;BME280;66647;52.124;5.416;2023-05-29T10:20:39;102717.84;;;21.79;35.46
76866;BME280;66647;52.124;5.416;2023-05-29T10:23:09;102710.50;;;21.59;35.09
76866;BME280;66647;52.124;5.416;2023-05-29T10:25:46;102711.88;;;21.65;36.23
76866;BME280;66647;52.124;5.416;2023-05-29T10:28:15;102713.91;;;21.80;35.40
76866;BME280;66647;52.124;5.416;2023-05-29T10:30:57;102723.13;;;21.96;35.31
76866;BME280;66647;52.124;5.416;2023-05-29T10:34:18;102712.47;;;22.30;35.63
76866;BME280;66647;52.124;5.416;2023-05-29T10:39:32;102714.31;;;22.10;34.49
76866;BME280;66647;52.124;5.416;2023-05-29T10:45:05;102711.09;;;21.80;34.65
76866;BME280;66647;52.124;5.416;2023-05-29T10:47:31;102708.75;;;21.82;34.03
76866;BME280;66647;52.124;5.416;2023-05-29T10:50:02;102709.94;;;21.81;33.80
76866;BME280;66647;52.124;5.416;2023-05-29T10:52:37;102711.50;;;21.94;34.15
76866;BME280;66647;52.124;5.416;2023-05-29T10:55:11;102703.53;;;22.08;33.53
76866;BME280;66647;52.124;5.416;2023-05-29T10:57:46;102708.75;;;22.41;33.86
76866;BME280;66647;52.124;5.416;2023-05-29T11:00:15;102698.56;;;22.18;32.32
76866;BME280;66647;52.124;5.416;2023-05-29T11:02:46;102706.69;;;22.07;33.22
76866;BME280;66647;52.124;5.416;2023-05-29T11:05:23;102705.06;;;22.22;33.56
76866;BME280;66647;52.124;5.416;2023-05-29T11:07:58;102695.66;;;22.14;33.42
76866;BME280;66647;52.124;5.416;2023-05-29T11:10:56;102701.75;;;21.88;34.64
76866;BME280;66647;52.124;5.416;2023-05-29T11:13:39;102711.91;;;22.08;35.96
76866;BME280;66647;52.124;5.416;2023-05-29T11:19:28;102704.41;;;22.60;33.55
76866;BME280;66647;52.124;5.416;2023-05-29T11:22:09;102704.00;;;22.77;32.05
76866;BME280;66647;52.124;5.416;2023-05-29T11:24:42;102698.25;;;22.70;31.42
76866;BME280;66647;52.124;5.416;2023-05-29T11:27:10;102701.69;;;22.48;31.79
76866;BME280;66647;52.124;5.416;2023-05-29T11:29:39;102689.72;;;22.16;31.89
76866;BME280;66647;52.124;5.416;2023-05-29T11:32:06;102690.78;;;22.11;32.51
76866;BME280;66647;52.124;5.416;2023-05-29T11:34:40;102697.66;;;22.13;32.06
76866;BME280;66647;52.124;5.416;2023-05-29T11:37:07;102696.19;;;22.51;31.79
76866;BME280;66647;52.124;5.416;2023-05-29T11:39:37;102693.06;;;22.37;31.87
76866;BME280;66647;52.124;5.416;2023-05-29T11:42:04;102702.81;;;22.27;32.04
76866;BME280;66647;52.124;5.416;2023-05-29T11:44:32;102702.81;;;22.27;32.30
76866;BME280;66647;52.124;5.416;2023-05-29T11:47:00;102706.50;;;22.16;31.95
76866;BME280;66647;52.124;5.416;2023-05-29T11:49:31;102710.47;;;22.30;32.50
76866;BME280;66647;52.124;5.416;2023-05-29T11:52:09;102699.19;;;22.11;32.41
76866;BME280;66647;52.124;5.416;2023-05-29T11:54:45;102702.03;;;21.99;33.17
76866;BME280;66647;52.124;5.416;2023-05-29T11:57:19;102700.75;;;22.08;34.01
76866;BME280;66647;52.124;5.416;2023-05-29T11:59:50;102694.06;;;22.29;34.23
76866;BME280;66647;52.124;5.416;2023-05-29T12:02:20;102707.50;;;22.07;34.32
76866;BME280;66647;52.124;5.416;2023-05-29T12:05:05;102690.00;;;21.67;34.60
76866;BME280;66647;52.124;5.416;2023-05-29T12:07:34;102695.25;;;21.68;34.15
76866;BME280;66647;52.124;5.416;2023-05-29T12:10:14;102689.91;;;21.63;34.23
76866;BME280;66647;52.124;5.416;2023-05-29T12:12:41;102692.81;;;21.67;34.44
76866;BME280;66647;52.124;5.416;2023-05-29T12:15:09;102694.72;;;21.51;33.75
76866;BME280;66647;52.124;5.416;2023-05-29T12:17:37;102703.31;;;21.30;34.84
76866;BME280;66647;52.124;5.416;2023-05-29T12:20:05;102701.56;;;21.25;35.04
76866;BME280;66647;52.124;5.416;2023-05-29T12:22:36;102698.16;;;21.44;35.15
76866;BME280;66647;52.124;5.416;2023-05-29T12:25:09;102698.03;;;21.40;33.97
76866;BME280;66647;52.124;5.416;2023-05-29T12:27:47;102700.88;;;21.56;35.01
76866;BME280;66647;52.124;5.416;2023-05-29T12:32:58;102694.69;;;21.35;36.02
76866;BME280;66647;52.124;5.416;2023-05-29T12:35:28;102695.72;;;21.42;35.83
76866;BME280;66647;52.124;5.416;2023-05-29T12:38:00;102694.34;;;21.36;34.44
76866;BME280;66647;52.124;5.416;2023-05-29T12:40:32;102683.56;;;21.51;34.19
76866;BME280;66647;52.124;5.416;2023-05-29T12:43:06;102686.66;;;21.33;34.07
76866;BME280;66647;52.124;5.416;2023-05-29T12:45:35;102689.94;;;21.23;34.21
76866;BME280;66647;52.124;5.416;2023-05-29T12:48:04;102689.34;;;21.18;34.06
76866;BME280;66647;52.124;5.416;2023-05-29T12:55:36;102677.25;;;21.54;34.56
76866;BME280;66647;52.124;5.416;2023-05-29T12:58:13;102681.44;;;21.60;34.62
76866;BME280;66647;52.124;5.416;2023-05-29T13:00:41;102684.81;;;21.53;34.16
76866;BME280;66647;52.124;5.416;2023-05-29T13:03:08;102688.28;;;21.34;34.21
76866;BME280;66647;52.124;5.416;2023-05-29T13:05:36;102690.31;;;21.22;33.95
76866;BME280;66647;52.124;5.416;2023-05-29T13:08:02;102690.88;;;21.27;33.91
76866;BME280;66647;52.124;5.416;2023-05-29T13:10:31;102686.91;;;21.16;33.12
76866;BME280;66647;52.124;5.416;2023-05-29T13:12:57;102696.16;;;21.04;32.94
76866;BME280;66647;52.124;5.416;2023-05-29T13:15:25;102700.00;;;21.00;32.58
76866;BME280;66647;52.124;5.416;2023-05-29T13:17:53;102691.16;;;20.98;33.17
76866;BME280;66647;52.124;5.416;2023-05-29T13:20:20;102685.22;;;21.11;34.37
76866;BME280;66647;52.124;5.416;2023-05-29T13:22:47;102691.56;;;21.24;34.86
76866;BME280;66647;52.124;5.416;2023-05-29T13:25:16;102674.13;;;21.27;34.81
76866;BME280;66647;52.124;5.416;2023-05-29T13:27:45;102693.97;;;21.38;35.64
76866;BME280;66647;52.124;5.416;2023-05-29T13:30:13;102689.91;;;21.35;34.50
76866;BME280;66647;52.124;5.416;2023-05-29T13:32:40;102692.72;;;21.35;33.86
76866;BME280;66647;52.124;5.416;2023-05-29T13:35:07;102689.00;;;21.31;32.54
76866;BME280;66647;52.124;5.416;2023-05-29T13:37:35;102684.59;;;21.30;32.76
76866;BME280;66647;52.124;5.416;2023-05-29T13:40:03;102696.88;;;21.41;32.29
76866;BME280;66647;52.124;5.416;2023-05-29T13:42:31;102685.28;;;21.27;32.24
76866;BME280;66647;52.124;5.416;2023-05-29T13:44:58;102687.72;;;21.17;33.33
76866;BME280;66647;52.124;5.416;2023-05-29T13:47:26;102695.56;;;21.11;34.01
76866;BME280;66647;52.124;5.416;2023-05-29T13:49:55;102689.00;;;21.19;35.23